Nearby METAR Reports

 

EGVO - Odiham Raf, United Kingdom
Distance from station: E 6mi, 10km
Updated: Thu, 03-Dec-2020 12:50am GMT
Mostly Cloudy
Mostly Cloudy
 Wind from SW
Wind: SW 9 mph , 15 km/h
Temperature: 37°F , 3°C
Wind Chill: 30°F , -1°C
Dew Point: 36°F , 2°C
Humidity: 93%
Barometer: 29.74 inHg , 1007 hPa
Clouds: Mostly Cloudy
Visibility: 6 miles , 10 km
Cloud details: Mostly Cloudy 15000 ft
2020/12/03 00:50 EGVO 030050Z AUTO 22008KT 9999 BKN150/// 03/02 Q1007
EGLF - Farnborough, United Kingdom
Distance from station: ENE 15mi, 23km
Updated: Thu, 03-Dec-2020 12:50am GMT
Clear
Clear
 Wind from SW
Wind: SW 8 mph , 13 km/h
Temperature: 37°F , 3°C
Wind Chill: 31°F , -1°C
Dew Point: 36°F , 2°C
Humidity: 93%
Barometer: 29.74 inHg , 1007 hPa
Clouds: Clear
Visibility: 6 miles , 10 km
2020/12/03 00:50 EGLF 030050Z AUTO 23007KT 9999 NCD 03/02 Q1007
 
EGVP - Middle Wallop, United Kingdom
Distance from station: WSW 22mi, 35km
Updated: Thu, 03-Dec-2020 12:50am GMT
Mostly Cloudy
Mostly Cloudy
 Wind from SSW
Wind: SSW 5 mph , 7 km/h
Temperature: 37°F , 3°C
Wind Chill: 33°F , 1°C
Dew Point: 36°F , 2°C
Humidity: 93%
Barometer: 29.74 inHg , 1007 hPa
Clouds: Mostly Cloudy
Visibility: 6 miles , 10 km
Cloud details: Partly Cloudy 3300 ft
Mostly Cloudy 12000 ft
2020/12/03 00:50 EGVP 030050Z AUTO 21004KT 9999 SCT033/// BKN120/// 03/02 Q1007
EGHI - Southampton Wx C, United Kingdom
Distance from station: SSW 23mi, 37km
Updated: Wed, 02-Dec-2020 6:20pm GMT
NOT Current
Light rain, Mostly cloudy
Light rain, Mostly cloudy
 Wind from calm
Wind: Calm
Temperature: 45°F , 7°C
Dew Point: 43°F , 6°C
Humidity: 93%
Barometer: 29.91 inHg , 1013 hPa
Summary: Light Rain
Clouds: Mostly Cloudy
Visibility: 4 miles , 7 km
Cloud details: Few Clouds 700 ft
Mostly Cloudy 1500 ft
2020/12/02 18:20 EGHI 021820Z 00000KT 7000 -RA FEW007 BKN015 07/06 Q1013
 
EGUB - Benson Raf, United Kingdom
Distance from station: N 26mi, 42km
Updated: Thu, 03-Dec-2020 12:50am GMT
Overcast
Overcast
 Wind from S
Wind: S 7 mph , 11 km/h
Temperature: 39°F , 4°C
Wind Chill: 34°F , 1°C
Dew Point: 36°F , 2°C
Humidity: 87%
Barometer: 29.71 inHg , 1006 hPa
Clouds: Overcast
Visibility: 6 miles , 10 km
Cloud details: Few Clouds 5000 ft
Overcast 11000 ft
2020/12/03 00:50 EGUB 030050Z AUTO 19006KT 9999 // FEW050/// OVC110/// 04/02 Q1006
EGDM - Boscombe Down, United Kingdom
Distance from station: W 29mi, 46km
Updated: Thu, 03-Dec-2020 12:50am GMT
Mostly Cloudy
Mostly Cloudy
 Wind from S
Wind: S 7 mph , 11 km/h
Temperature: 37°F , 3°C
Wind Chill: 32°F , 0°C
Dew Point: 36°F , 2°C
Humidity: 93%
Barometer: 29.74 inHg , 1007 hPa
Clouds: Mostly Cloudy
Visibility: 6 miles , 10 km
Cloud details: Few Clouds 3200 ft
Partly Cloudy 4100 ft
Mostly Cloudy 12000 ft
2020/12/03 00:50 EGDM 030050Z AUTO 19006KT 9999 FEW032/// SCT041/// BKN120/// 03/02 Q1007 RERA

Metar display script from Saratoga-Weather.org